createdAt,value
2022-08-05T00:01:35.992Z,53.34
2022-08-05T00:04:05.233Z,52.87
2022-08-05T00:06:35.840Z,54.71
2022-08-05T00:09:05.115Z,54.39
2022-08-05T00:11:49.544Z,53.86
2022-08-05T00:14:27.855Z,53.73
2022-08-05T00:16:56.127Z,54.16
2022-08-05T00:19:25.038Z,53.76
2022-08-05T00:22:01.306Z,54.00
2022-08-05T00:24:31.154Z,54.20
2022-08-05T00:26:59.252Z,54.97
2022-08-05T00:29:27.572Z,55.30
2022-08-05T00:32:13.343Z,55.45
2022-08-05T00:35:04.654Z,55.79
2022-08-05T00:37:50.330Z,56.97
2022-08-05T00:40:27.361Z,57.73
2022-08-05T00:43:01.092Z,58.92
2022-08-05T00:45:43.109Z,59.70
2022-08-05T00:48:27.394Z,60.54
2022-08-05T00:50:54.624Z,62.34
2022-08-05T00:54:00.396Z,62.36
2022-08-05T00:56:10.395Z,63.34
2022-08-05T00:58:39.140Z,64.22
2022-08-05T01:01:10.690Z,65.60
2022-08-05T01:03:38.969Z,68.62
2022-08-05T01:06:06.598Z,70.89
2022-08-05T01:08:44.604Z,73.11
2022-08-05T01:11:24.214Z,76.42
2022-08-05T01:14:09.909Z,78.15
2022-08-05T01:16:49.491Z,79.46
2022-08-05T01:20:02.451Z,81.59
2022-08-05T01:22:47.322Z,84.97
2022-08-05T01:25:16.848Z,88.99
2022-08-05T01:28:11.314Z,91.49
2022-08-05T01:30:52.423Z,93.14
2022-08-05T01:33:25.236Z,95.16
2022-08-05T01:35:55.554Z,96.10
2022-08-05T01:38:29.196Z,97.15
2022-08-05T01:40:59.826Z,98.16
2022-08-05T01:43:29.818Z,99.22
2022-08-05T01:45:58.871Z,100.00
2022-08-05T01:48:36.487Z,100.00
2022-08-05T01:51:11.965Z,100.00
2022-08-05T01:53:56.898Z,100.00
2022-08-05T01:58:09.366Z,100.00
2022-08-05T01:59:22.054Z,100.00
2022-08-05T02:01:51.588Z,99.49
2022-08-05T02:04:23.809Z,98.23
2022-08-05T02:06:52.830Z,97.21
2022-08-05T02:09:20.596Z,98.00
2022-08-05T02:12:16.967Z,99.59
2022-08-05T02:14:49.577Z,100.00
2022-08-05T02:18:31.408Z,100.00
2022-08-05T02:20:47.694Z,100.00
2022-08-05T02:23:20.213Z,100.00
2022-08-05T02:25:50.567Z,100.00
2022-08-05T02:28:28.816Z,100.00
2022-08-05T02:31:05.894Z,100.00
2022-08-05T02:33:42.301Z,100.00
2022-08-05T02:36:13.489Z,100.00
2022-08-05T02:38:53.535Z,100.00
2022-08-05T02:41:22.944Z,100.00
2022-08-05T02:44:02.443Z,100.00
2022-08-05T02:46:44.028Z,100.00
2022-08-05T02:49:22.344Z,100.00
2022-08-05T02:52:03.987Z,100.00
2022-08-05T02:54:34.801Z,100.00
2022-08-05T02:57:10.155Z,100.00
2022-08-05T02:59:54.398Z,100.00
2022-08-05T03:02:27.406Z,100.00
2022-08-05T03:04:57.356Z,100.00
2022-08-05T03:08:00.849Z,100.00
2022-08-05T03:10:15.819Z,100.00
2022-08-05T03:12:51.863Z,100.00
2022-08-05T03:15:21.208Z,100.00
2022-08-05T03:17:54.212Z,100.00
2022-08-05T03:20:22.456Z,100.00
2022-08-05T03:22:50.936Z,100.00
2022-08-05T03:25:34.094Z,100.00
2022-08-05T03:28:08.870Z,100.00
2022-08-05T03:30:36.851Z,100.00
2022-08-05T03:33:07.492Z,100.00
2022-08-05T03:35:41.031Z,100.00
2022-08-05T03:38:11.781Z,100.00
2022-08-05T03:40:45.114Z,100.00
2022-08-05T03:43:59.294Z,100.00
2022-08-05T03:46:02.307Z,100.00
2022-08-05T03:48:30.135Z,100.00
2022-08-05T03:52:36.905Z,100.00
2022-08-05T03:56:04.725Z,100.00
2022-08-05T03:57:41.662Z,100.00
2022-08-05T04:00:16.300Z,100.00
2022-08-05T04:02:57.890Z,100.00
2022-08-05T04:05:33.651Z,100.00
2022-08-05T04:08:14.781Z,100.00
2022-08-05T04:10:54.585Z,100.00
2022-08-05T04:13:21.987Z,100.00
2022-08-05T04:16:03.319Z,100.00
2022-08-05T04:18:34.403Z,100.00
2022-08-05T04:21:03.989Z,100.00
2022-08-05T04:24:05.396Z,100.00
2022-08-05T04:26:18.644Z,99.25
2022-08-05T04:28:51.114Z,99.30
2022-08-05T04:31:19.571Z,99.94
2022-08-05T04:34:18.009Z,99.02
2022-08-05T04:36:46.304Z,99.20
2022-08-05T04:39:16.863Z,100.00
2022-08-05T04:41:45.829Z,99.66
2022-08-05T04:44:14.902Z,100.00
2022-08-05T04:46:48.642Z,100.00
2022-08-05T04:49:15.520Z,100.00
2022-08-05T04:51:45.369Z,100.00
2022-08-05T04:54:12.379Z,99.17
2022-08-05T04:56:40.099Z,99.92
2022-08-05T04:59:22.093Z,100.00
2022-08-05T05:02:07.542Z,100.00
2022-08-05T05:04:47.750Z,97.54
2022-08-05T05:07:17.039Z,97.95
2022-08-05T05:09:45.077Z,98.96
2022-08-05T05:12:11.957Z,100.00
2022-08-05T05:14:38.784Z,98.85
2022-08-05T05:17:22.773Z,100.00
2022-08-05T05:19:54.025Z,99.73
2022-08-05T05:22:24.596Z,98.56
2022-08-05T05:24:59.441Z,97.93
2022-08-05T05:27:41.263Z,98.40
2022-08-05T05:30:29.644Z,96.27
2022-08-05T05:33:00.438Z,94.00
2022-08-05T05:35:39.783Z,94.09
2022-08-05T05:38:13.426Z,94.42
2022-08-05T05:40:49.621Z,93.28
2022-08-05T05:43:54.530Z,92.19
2022-08-05T05:46:17.470Z,89.16
2022-08-05T05:48:47.825Z,87.48
2022-08-05T05:51:20.049Z,88.48
2022-08-05T05:53:58.058Z,88.57
2022-08-05T05:56:32.562Z,86.59
2022-08-05T05:59:05.374Z,88.30
2022-08-05T06:01:38.918Z,88.62
2022-08-05T06:04:08.566Z,88.70
2022-08-05T06:06:47.722Z,87.20
2022-08-05T06:09:27.466Z,88.99
2022-08-05T06:12:03.704Z,87.00
2022-08-05T06:14:31.303Z,85.18
2022-08-05T06:16:58.872Z,84.50
2022-08-05T06:19:34.701Z,83.26
2022-08-05T06:22:06.840Z,81.76
2022-08-05T06:24:42.045Z,83.92
2022-08-05T06:28:09.513Z,80.46
2022-08-05T06:30:04.623Z,76.75
2022-08-05T06:32:44.964Z,76.58
2022-08-05T06:35:15.496Z,77.10
2022-08-05T06:38:04.275Z,76.38
2022-08-05T06:40:38.193Z,73.96
2022-08-05T06:43:58.516Z,73.07
2022-08-05T06:46:06.964Z,73.36
2022-08-05T06:48:53.483Z,71.74
2022-08-05T06:51:29.446Z,71.09
2022-08-05T06:54:01.693Z,67.54
2022-08-05T06:56:29.762Z,68.66
2022-08-05T06:58:56.621Z,67.34
2022-08-05T07:01:32.443Z,66.23
2022-08-05T07:04:02.219Z,68.31
2022-08-05T07:06:29.392Z,68.14
2022-08-05T07:08:56.178Z,66.16
2022-08-05T07:11:27.983Z,66.28
2022-08-05T07:14:20.780Z,65.07
2022-08-05T07:17:59.725Z,63.68
2022-08-05T07:20:31.212Z,64.53
2022-08-05T07:22:34.714Z,64.67
2022-08-05T07:25:23.803Z,64.06
2022-08-05T07:27:58.318Z,64.31
2022-08-05T07:30:32.101Z,62.13
2022-08-05T07:33:05.442Z,64.60
2022-08-05T07:36:05.059Z,62.23
2022-08-05T07:38:33.641Z,61.79
2022-08-05T07:42:09.232Z,65.03
2022-08-05T07:43:51.277Z,62.94
2022-08-05T07:46:24.637Z,61.41
2022-08-05T07:49:02.776Z,59.93
2022-08-05T07:51:40.984Z,59.87
2022-08-05T07:54:26.235Z,57.30
2022-08-05T07:57:02.335Z,57.25
2022-08-05T07:59:41.330Z,57.44
2022-08-05T08:02:15.711Z,57.92
2022-08-05T08:04:46.411Z,57.29
2022-08-05T08:07:13.958Z,56.56
2022-08-05T08:09:42.016Z,56.82
2022-08-05T08:12:19.219Z,57.13
2022-08-05T08:14:55.942Z,57.22
2022-08-05T08:17:23.807Z,56.75
2022-08-05T08:20:10.366Z,56.53
2022-08-05T08:22:41.190Z,59.46
2022-08-05T08:25:16.033Z,59.39
2022-08-05T08:27:47.666Z,57.63
2022-08-05T08:30:33.983Z,56.92
2022-08-05T08:33:09.276Z,56.58
2022-08-05T08:35:52.226Z,54.77
2022-08-05T08:38:32.210Z,55.17
2022-08-05T08:41:14.044Z,53.12
2022-08-05T08:45:23.303Z,53.67
2022-08-05T08:46:32.260Z,52.08
2022-08-05T08:50:03.782Z,52.80
2022-08-05T08:52:03.193Z,51.51
2022-08-05T08:54:32.535Z,51.57
2022-08-05T08:57:00.497Z,50.31
2022-08-05T08:59:33.607Z,50.61
2022-08-05T09:02:02.313Z,50.24
2022-08-05T09:04:30.688Z,50.04
2022-08-05T09:06:58.438Z,49.36
2022-08-05T09:09:34.542Z,49.15
2022-08-05T09:12:20.032Z,47.75
2022-08-05T09:14:56.508Z,48.00
2022-08-05T09:17:43.172Z,46.82
2022-08-05T09:20:36.382Z,46.32
2022-08-05T09:23:19.220Z,45.67
2022-08-05T09:26:06.189Z,44.89
2022-08-05T09:28:35.235Z,43.06
2022-08-05T09:31:22.277Z,43.30
2022-08-05T09:34:01.089Z,40.67
2022-08-05T09:36:56.036Z,39.69
2022-08-05T09:39:41.268Z,38.79
2022-08-05T09:42:20.173Z,38.19
2022-08-05T09:44:56.842Z,37.41
2022-08-05T09:47:36.552Z,38.02
2022-08-05T09:50:14.634Z,34.39
2022-08-05T09:52:45.400Z,34.38
2022-08-05T09:55:59.100Z,34.28
2022-08-05T09:57:59.945Z,34.82
2022-08-05T10:00:27.758Z,33.45
2022-08-05T10:02:58.662Z,31.71
2022-08-05T10:05:28.288Z,32.57
2022-08-05T10:08:35.113Z,31.20
2022-08-05T10:10:54.524Z,31.72
2022-08-05T10:13:47.883Z,29.86
2022-08-05T10:16:37.765Z,29.59
2022-08-05T10:19:23.673Z,29.44
2022-08-05T10:22:09.016Z,30.06
2022-08-05T10:24:42.423Z,30.77
2022-08-05T10:27:16.626Z,30.25
2022-08-05T10:30:07.143Z,29.78
2022-08-05T10:32:53.684Z,29.29
2022-08-05T10:35:19.266Z,29.54
2022-08-05T10:37:47.158Z,29.84
2022-08-05T10:40:57.871Z,29.19
2022-08-05T10:43:36.427Z,28.62
2022-08-05T10:46:09.696Z,29.26
2022-08-05T10:48:56.481Z,29.24
2022-08-05T10:51:28.879Z,29.57
2022-08-05T10:54:01.885Z,28.57
2022-08-05T10:56:49.496Z,28.62
2022-08-05T11:00:03.740Z,29.18
2022-08-05T11:02:34.769Z,29.03
2022-08-05T11:05:05.828Z,28.81
2022-08-05T11:08:02.477Z,28.56
2022-08-05T11:10:27.366Z,28.21
2022-08-05T11:12:55.945Z,28.04
2022-08-05T11:16:00.824Z,28.21
2022-08-05T11:18:32.412Z,28.41
2022-08-05T11:21:00.196Z,28.38
2022-08-05T11:24:04.472Z,28.69
2022-08-05T11:26:28.996Z,27.93
2022-08-05T11:29:06.605Z,28.37
2022-08-05T11:31:54.449Z,27.84
2022-08-05T11:34:51.421Z,28.20
2022-08-05T11:38:29.157Z,28.28
2022-08-05T11:41:13.976Z,27.53
2022-08-05T11:44:06.033Z,27.34
2022-08-05T11:47:09.634Z,27.28
2022-08-05T11:49:36.031Z,27.23
2022-08-05T11:52:08.805Z,27.51
2022-08-05T11:54:40.674Z,26.87
2022-08-05T11:57:25.321Z,27.60
2022-08-05T11:59:54.865Z,27.64
2022-08-05T12:02:33.067Z,27.61
2022-08-05T12:05:07.203Z,26.54
2022-08-05T12:08:04.412Z,26.49
2022-08-05T12:10:39.038Z,26.18
2022-08-05T12:13:28.141Z,26.81
2022-08-05T12:16:15.468Z,26.27
2022-08-05T12:18:52.317Z,26.51
2022-08-05T12:21:38.932Z,26.83
2022-08-05T12:24:14.291Z,27.60
2022-08-05T12:26:52.806Z,27.96
2022-08-05T12:29:22.775Z,28.22
2022-08-05T12:32:02.286Z,28.75
2022-08-05T12:34:37.039Z,28.52
2022-08-05T12:37:17.599Z,29.25
2022-08-05T12:39:51.523Z,29.21
2022-08-05T12:42:20.997Z,29.96
2022-08-05T12:44:48.403Z,29.97
2022-08-05T12:47:28.827Z,29.04
2022-08-05T12:50:03.165Z,29.16
2022-08-05T12:52:41.765Z,29.44
2022-08-05T12:55:23.949Z,29.34
2022-08-05T12:58:49.607Z,29.76
2022-08-05T13:02:00.103Z,30.30
2022-08-05T13:03:41.810Z,30.00
2022-08-05T13:06:13.785Z,30.38
2022-08-05T13:08:51.443Z,30.74
2022-08-05T13:12:02.258Z,29.86
2022-08-05T13:14:24.815Z,30.19
2022-08-05T13:17:41.418Z,30.56
2022-08-05T13:20:24.618Z,31.39
2022-08-05T13:22:53.305Z,31.01
2022-08-05T13:25:22.013Z,30.02
2022-08-05T13:27:53.077Z,29.92
2022-08-05T13:30:34.837Z,30.15
2022-08-05T13:33:03.857Z,31.11
2022-08-05T13:35:47.021Z,29.95
2022-08-05T13:38:19.999Z,29.23
2022-08-05T13:40:55.466Z,29.46
2022-08-05T13:43:22.447Z,29.34
2022-08-05T13:45:50.883Z,28.67
2022-08-05T13:48:58.648Z,29.16
2022-08-05T13:51:09.589Z,29.39
2022-08-05T13:53:48.162Z,28.55
2022-08-05T13:56:18.967Z,29.46
2022-08-05T13:58:52.928Z,28.21
2022-08-05T14:01:22.804Z,28.89
2022-08-05T14:04:12.959Z,28.77
2022-08-05T14:06:39.680Z,28.35
2022-08-05T14:09:14.587Z,28.94
2022-08-05T14:12:03.950Z,29.45
2022-08-05T14:14:33.539Z,29.50
2022-08-05T14:17:00.799Z,28.93
2022-08-05T14:19:27.504Z,28.63
2022-08-05T14:22:09.529Z,28.56
2022-08-05T14:24:40.076Z,28.65
2022-08-05T14:27:18.614Z,27.83
2022-08-05T14:29:45.530Z,28.70
2022-08-05T14:32:27.742Z,28.34
2022-08-05T14:34:56.956Z,27.46
2022-08-05T14:37:45.622Z,28.47
2022-08-05T14:40:14.216Z,27.43
2022-08-05T14:42:44.256Z,27.54
2022-08-05T14:45:11.539Z,26.46
2022-08-05T14:48:04.116Z,26.81
2022-08-05T14:50:25.273Z,27.00
2022-08-05T14:52:57.598Z,27.31
2022-08-05T14:55:28.536Z,27.10
2022-08-05T14:58:11.407Z,27.03
2022-08-05T15:00:58.508Z,26.84
2022-08-05T15:03:33.849Z,26.62
2022-08-05T15:06:07.563Z,26.96
2022-08-05T15:08:59.823Z,26.37
2022-08-05T15:11:51.372Z,26.64
2022-08-05T15:14:33.306Z,26.21
2022-08-05T15:17:01.258Z,26.03
2022-08-05T15:19:27.963Z,26.08
2022-08-05T15:21:59.874Z,25.59
2022-08-05T15:24:27.799Z,26.11
2022-08-05T15:26:56.066Z,26.09
2022-08-05T15:29:30.224Z,26.99
2022-08-05T15:32:02.338Z,27.53
2022-08-05T15:34:33.008Z,27.46
2022-08-05T15:37:06.196Z,27.91
2022-08-05T15:41:00.101Z,27.21
2022-08-05T15:42:28.732Z,27.50
2022-08-05T15:45:11.317Z,27.93
2022-08-05T15:47:42.234Z,27.76
2022-08-05T15:50:09.938Z,28.87
2022-08-05T15:52:53.460Z,28.89
2022-08-05T15:55:24.794Z,28.08
2022-08-05T15:57:52.446Z,28.55
2022-08-05T16:00:26.176Z,29.05
2022-08-05T16:02:59.916Z,28.46
2022-08-05T16:05:28.472Z,28.95
2022-08-05T16:07:55.382Z,29.99
2022-08-05T16:10:25.631Z,29.86
2022-08-05T16:12:56.057Z,30.38
2022-08-05T16:15:23.460Z,30.78
2022-08-05T16:17:57.367Z,31.13
2022-08-05T16:20:25.426Z,31.64
2022-08-05T16:22:52.136Z,32.16
2022-08-05T16:25:18.884Z,30.73
2022-08-05T16:27:59.852Z,32.02
2022-08-05T16:30:30.712Z,33.19
2022-08-05T16:32:59.567Z,32.60
2022-08-05T16:35:28.712Z,32.93
2022-08-05T16:38:03.419Z,32.78
2022-08-05T16:40:48.044Z,33.19
2022-08-05T16:43:24.917Z,34.44
2022-08-05T16:46:07.178Z,34.32
2022-08-05T16:48:40.526Z,34.39
2022-08-05T16:51:09.136Z,33.78
2022-08-05T16:54:04.772Z,33.25
2022-08-05T16:56:29.535Z,34.16
2022-08-05T16:58:58.009Z,34.37
2022-08-05T17:01:25.212Z,35.10
2022-08-05T17:03:52.295Z,35.04
2022-08-05T17:06:20.447Z,35.73
2022-08-05T17:08:53.814Z,35.33
2022-08-05T17:11:25.332Z,34.67
2022-08-05T17:13:54.705Z,35.37
2022-08-05T17:16:37.797Z,34.95
2022-08-05T17:19:07.794Z,36.00
2022-08-05T17:21:37.761Z,35.12
2022-08-05T17:24:19.794Z,35.65
2022-08-05T17:26:58.662Z,35.95
2022-08-05T17:29:33.268Z,36.29
2022-08-05T17:32:11.372Z,37.46
2022-08-05T17:34:43.682Z,38.42
2022-08-05T17:37:27.327Z,39.47
2022-08-05T17:39:57.500Z,39.28
2022-08-05T17:42:32.125Z,39.33
2022-08-05T17:45:09.724Z,39.42
2022-08-05T17:47:37.055Z,40.05
2022-08-05T17:50:10.614Z,39.49
2022-08-05T17:52:53.281Z,40.30
2022-08-05T17:55:22.844Z,41.32
2022-08-05T17:58:02.255Z,41.75
2022-08-05T18:00:29.573Z,42.44
2022-08-05T18:02:56.775Z,42.69
2022-08-05T18:05:24.024Z,42.80
2022-08-05T18:07:56.770Z,42.86
2022-08-05T18:10:23.897Z,43.30
2022-08-05T18:12:51.312Z,43.50
2022-08-05T18:15:18.250Z,42.67
2022-08-05T18:18:01.117Z,43.62
2022-08-05T18:20:32.245Z,44.65
2022-08-05T18:23:11.944Z,45.32
2022-08-05T18:25:42.756Z,45.98
2022-08-05T18:28:17.579Z,46.72
2022-08-05T18:30:51.224Z,46.58
2022-08-05T18:33:22.657Z,47.89
2022-08-05T18:36:03.869Z,47.73
2022-08-05T18:38:36.957Z,47.63
2022-08-05T18:41:53.250Z,48.09
2022-08-05T18:43:54.268Z,48.26
2022-08-05T18:46:20.960Z,48.18
2022-08-05T18:48:52.200Z,48.39
2022-08-05T18:52:04.238Z,48.25
2022-08-05T18:54:31.723Z,48.46
2022-08-05T18:57:01.899Z,48.85
2022-08-05T18:59:44.438Z,49.52
2022-08-05T19:02:38.036Z,49.84
2022-08-05T19:06:05.894Z,50.43
2022-08-05T19:07:55.289Z,49.52
2022-08-05T19:10:27.860Z,50.91
2022-08-05T19:12:59.026Z,50.49
2022-08-05T19:15:58.902Z,51.74
2022-08-05T19:18:22.328Z,51.24
2022-08-05T19:20:52.435Z,51.71
2022-08-05T19:24:03.604Z,51.50
2022-08-05T19:26:08.548Z,50.76
2022-08-05T19:28:43.633Z,50.14
2022-08-05T19:31:14.996Z,50.15
2022-08-05T19:33:55.727Z,50.93
2022-08-05T19:36:29.281Z,51.36
2022-08-05T19:39:00.967Z,50.68
2022-08-05T19:41:58.397Z,50.17
2022-08-05T19:44:16.116Z,49.67
2022-08-05T19:46:43.638Z,48.87
2022-08-05T19:49:12.600Z,49.23
2022-08-05T19:52:08.324Z,49.41
2022-08-05T19:54:31.899Z,49.06
2022-08-05T19:56:59.941Z,49.05
2022-08-05T19:59:55.028Z,49.13
2022-08-05T20:02:17.885Z,50.38
2022-08-05T20:04:46.124Z,50.23
2022-08-05T20:07:15.769Z,49.74
2022-08-05T20:10:04.800Z,49.83
2022-08-05T20:12:38.137Z,49.34
2022-08-05T20:15:13.738Z,50.82
2022-08-05T20:17:40.415Z,50.89
2022-08-05T20:20:11.073Z,51.85
2022-08-05T20:22:37.954Z,51.71
2022-08-05T20:25:09.320Z,51.92
2022-08-05T20:27:41.745Z,51.78
2022-08-05T20:30:10.271Z,51.73
2022-08-05T20:32:37.257Z,51.54
2022-08-05T20:35:12.004Z,51.68
2022-08-05T20:38:08.104Z,50.95
2022-08-05T20:40:27.347Z,51.35
2022-08-05T20:43:00.194Z,52.02
2022-08-05T20:45:56.501Z,53.00
2022-08-05T20:48:16.408Z,53.19
2022-08-05T20:50:46.778Z,52.59
2022-08-05T20:53:15.923Z,53.70
2022-08-05T20:56:08.551Z,53.11
2022-08-05T20:58:36.191Z,51.62
2022-08-05T21:01:04.591Z,51.71
2022-08-05T21:03:34.620Z,51.59
2022-08-05T21:06:01.980Z,52.26
2022-08-05T21:08:41.939Z,51.44
2022-08-05T21:11:12.597Z,52.54
2022-08-05T21:13:48.229Z,52.82
2022-08-05T21:16:29.904Z,51.13
2022-08-05T21:18:59.983Z,52.79
2022-08-05T21:21:44.248Z,53.13
2022-08-05T21:24:19.663Z,50.86
2022-08-05T21:26:53.238Z,50.37
2022-08-05T21:29:23.505Z,49.82
2022-08-05T21:31:53.756Z,49.49
2022-08-05T21:34:20.947Z,49.46
2022-08-05T21:36:49.349Z,48.55
2022-08-05T21:39:16.929Z,48.74
2022-08-05T21:42:01.163Z,49.01
2022-08-05T21:44:31.886Z,49.81
2022-08-05T21:46:59.304Z,50.08
2022-08-05T21:49:58.835Z,49.96
2022-08-05T21:52:27.710Z,50.75
2022-08-05T21:54:57.654Z,51.53
2022-08-05T21:57:33.298Z,52.37
2022-08-05T22:00:05.959Z,53.05
2022-08-05T22:02:43.567Z,53.70
2022-08-05T22:05:12.493Z,54.23
2022-08-05T22:07:58.939Z,54.77
2022-08-05T22:10:27.588Z,54.50
2022-08-05T22:12:58.996Z,54.67
2022-08-05T22:16:02.071Z,54.40
2022-08-05T22:18:25.829Z,53.93
2022-08-05T22:20:52.973Z,54.74
2022-08-05T22:24:01.251Z,55.41
2022-08-05T22:26:49.800Z,55.66
2022-08-05T22:29:18.867Z,56.08
2022-08-05T22:31:55.315Z,56.73
2022-08-05T22:34:28.680Z,56.34
2022-08-05T22:36:56.774Z,56.49
2022-08-05T22:39:32.552Z,56.51
2022-08-05T22:42:10.589Z,56.41
2022-08-05T22:44:40.520Z,56.40
2022-08-05T22:47:09.411Z,57.06
2022-08-05T22:50:19.259Z,57.15
2022-08-05T22:52:32.153Z,56.90
2022-08-05T22:55:01.754Z,57.04
2022-08-05T22:57:34.242Z,57.71
2022-08-05T23:00:06.151Z,57.80
2022-08-05T23:02:35.682Z,58.46
2022-08-05T23:05:13.764Z,59.37
2022-08-05T23:07:48.366Z,60.27
2022-08-05T23:10:20.035Z,60.53
2022-08-05T23:12:54.598Z,61.35
2022-08-05T23:15:29.011Z,61.38
2022-08-05T23:18:01.209Z,61.28
2022-08-05T23:20:29.875Z,61.52
2022-08-05T23:22:58.437Z,61.38
2022-08-05T23:25:54.733Z,61.74
2022-08-05T23:28:12.912Z,61.96
2022-08-05T23:30:52.835Z,62.57
2022-08-05T23:33:26.434Z,62.74
2022-08-05T23:36:10.125Z,64.13
2022-08-05T23:38:37.410Z,64.77
2022-08-05T23:41:04.137Z,65.47
2022-08-05T23:43:37.232Z,66.07
2022-08-05T23:46:19.945Z,67.69
2022-08-05T23:49:00.257Z,67.22
2022-08-05T23:51:53.647Z,68.32
2022-08-05T23:54:29.816Z,68.59
2022-08-05T23:57:03.219Z,68.87
